Time;durP1;ratioP1;P1;durP2;ratioP2;P2;SDS_P1;SDS_P2;PMS_P1;PMS_P2;Temp;Humidity;BMP_temperature;BMP_pressure;BME280_temperature;BME280_humidity;BME280_pressure;Samples;Min_cycle;Max_cycle;Signal;HPM_P1;HPM_P2
2022/05/15 00:02:09;;;;;;;8.00;5.25;;;13.00;99.90;;;;;;5071260;28;20501;-65
2022/05/15 00:04:36;;;;;;;12.18;5.90;;;13.00;99.90;;;;;;5069292;28;20448;-65
2022/05/15 00:07:05;;;;;;;10.50;5.05;;;13.00;99.90;;;;;;5073925;28;20040;-66
2022/05/15 00:09:32;;;;;;;7.95;5.03;;;13.00;99.90;;;;;;5057925;28;20049;-65
2022/05/15 00:11:59;;;;;;;9.02;4.85;;;13.00;99.90;;;;;;5065634;28;20048;-65
2022/05/15 00:14:26;;;;;;;8.90;4.93;;;13.00;99.90;;;;;;5058275;28;20382;-65
2022/05/15 00:16:53;;;;;;;8.60;5.38;;;13.00;99.90;;;;;;5054044;28;20040;-65
2022/05/15 00:19:20;;;;;;;8.88;4.60;;;12.90;99.90;;;;;;5068636;28;20056;-65
2022/05/15 00:21:46;;;;;;;9.82;5.28;;;12.90;99.90;;;;;;5055133;28;20095;-65
2022/05/15 00:24:14;;;;;;;;;;;12.90;99.90;;;;;;5054358;28;20052;-65
2022/05/15 00:26:41;;;;;;;11.60;5.68;;;12.80;99.90;;;;;;5063509;28;19977;-65
2022/05/15 00:29:08;;;;;;;7.22;5.47;;;12.70;99.90;;;;;;5043224;28;20041;-66
2022/05/15 00:31:35;;;;;;;7.22;5.30;;;12.60;99.90;;;;;;5035959;28;20489;-65
2022/05/15 00:34:02;;;;;;;8.95;5.10;;;12.50;99.90;;;;;;5053707;28;20036;-65
2022/05/15 00:36:29;;;;;;;9.70;5.90;;;12.50;99.90;;;;;;5068532;28;20053;-65
2022/05/15 00:38:58;;;;;;;7.75;4.90;;;12.50;99.90;;;;;;5055834;28;20497;-65
2022/05/15 00:41:26;;;;;;;9.23;5.28;;;12.60;99.90;;;;;;5073346;28;20036;-65
2022/05/15 00:43:54;;;;;;;;;;;12.60;99.90;;;;;;5070890;28;20654;-65
2022/05/15 00:46:28;;;;;;;9.82;5.53;;;12.70;99.90;;;;;;5050699;28;19928;-65
2022/05/15 00:48:57;;;;;;;8.02;5.57;;;12.70;99.90;;;;;;5054312;28;20056;-65
2022/05/15 00:51:50;;;;;;;9.05;5.20;;;12.60;99.90;;;;;;5035427;28;20060;-65
2022/05/15 00:54:23;;;;;;;10.52;6.00;;;12.70;99.90;;;;;;5042509;28;20500;-65
2022/05/15 00:56:57;;;;;;;7.43;4.93;;;12.70;99.90;;;;;;5062641;28;20045;-66
2022/05/15 00:59:26;;;;;;;10.00;4.93;;;12.70;99.90;;;;;;5035913;28;20045;-65
2022/05/15 01:01:53;;;;;;;7.82;5.20;;;12.80;99.90;;;;;;5038221;28;20131;-65
2022/05/15 01:04:21;;;;;;;;;;;12.70;99.90;;;;;;5055868;28;20151;-65
2022/05/15 01:06:47;;;;;;;7.43;4.80;;;12.70;99.90;;;;;;5055151;28;19982;-65
2022/05/15 01:09:15;;;;;;;9.57;4.85;;;12.70;99.90;;;;;;5053706;28;20115;-65
2022/05/15 01:11:45;;;;;;;7.47;4.85;;;12.70;99.90;;;;;;5038113;28;20060;-65
2022/05/15 01:14:15;;;;;;;12.77;5.25;;;12.70;99.90;;;;;;5050095;28;20048;-65
2022/05/15 01:16:42;;;;;;;8.68;5.30;;;12.70;99.90;;;;;;5035604;28;20049;-65
2022/05/15 01:19:09;;;;;;;10.93;5.35;;;12.60;99.90;;;;;;5035406;28;20056;-65
2022/05/15 01:21:51;;;;;;;7.78;4.85;;;12.70;99.90;;;;;;5051218;28;20117;-65
2022/05/15 01:24:19;;;;;;;8.63;5.32;;;12.60;99.90;;;;;;5035354;28;20072;-65
2022/05/15 01:26:47;;;;;;;10.13;5.30;;;12.60;99.90;;;;;;5035576;28;20520;-65
2022/05/15 01:29:17;;;;;;;8.38;5.82;;;12.60;99.90;;;;;;5041176;28;20052;-65
2022/05/15 01:31:47;;;;;;;11.50;5.25;;;12.60;99.90;;;;;;5044718;28;20048;-65
2022/05/15 01:34:14;;;;;;;8.60;5.60;;;12.60;99.90;;;;;;5035276;28;20584;-65
2022/05/15 01:36:41;;;;;;;6.53;4.82;;;12.60;99.90;;;;;;5062262;28;20508;-65
2022/05/15 01:39:07;;;;;;;7.53;4.63;;;12.60;99.90;;;;;;5042073;28;20048;-65
2022/05/15 01:41:34;;;;;;;7.53;4.80;;;12.60;99.90;;;;;;5034775;28;20045;-65
2022/05/15 01:44:01;;;;;;;7.95;5.63;;;12.50;99.90;;;;;;5052995;28;20051;-65
2022/05/15 01:46:29;;;;;;;9.65;4.95;;;12.50;99.90;;;;;;5067587;28;20041;-65
2022/05/15 01:49:06;;;;;;;6.78;4.97;;;12.40;99.90;;;;;;5035248;28;20420;-66
2022/05/15 01:51:37;;;;;;;6.03;4.53;;;12.40;99.90;;;;;;5034706;28;20048;-65
2022/05/15 01:54:03;;;;;;;11.63;5.43;;;12.40;99.90;;;;;;5065419;28;20037;-65
2022/05/15 01:56:31;;;;;;;8.18;5.70;;;12.40;99.90;;;;;;5038404;28;20463;-65
2022/05/15 01:58:58;;;;;;;7.20;5.60;;;12.40;99.90;;;;;;5034701;28;20049;-65
2022/05/15 02:01:25;;;;;;;7.80;4.90;;;12.30;99.90;;;;;;5047188;28;20052;-65
2022/05/15 02:03:52;;;;;;;6.90;4.97;;;12.30;99.90;;;;;;5043560;28;20045;-65
2022/05/15 02:06:19;;;;;;;10.02;5.53;;;12.30;99.90;;;;;;5034796;28;20041;-65
2022/05/15 02:08:47;;;;;;;7.88;5.35;;;12.30;99.90;;;;;;5034321;28;20413;-65
2022/05/15 02:11:15;;;;;;;15.02;5.13;;;12.30;99.90;;;;;;5048110;28;20079;-65
2022/05/15 02:13:42;;;;;;;6.88;5.15;;;12.30;99.90;;;;;;5036581;28;20045;-65
2022/05/15 02:16:09;;;;;;;7.57;5.45;;;12.30;99.90;;;;;;5052369;28;20060;-65
2022/05/15 02:18:36;;;;;;;8.88;5.15;;;12.20;99.90;;;;;;5068964;28;20040;-65
2022/05/15 02:21:03;;;;;;;12.15;5.28;;;12.20;99.90;;;;;;5041359;28;20561;-65
2022/05/15 02:23:31;;;;;;;8.00;5.22;;;12.20;99.90;;;;;;5034265;28;20076;-65
2022/05/15 02:25:59;;;;;;;7.70;5.38;;;12.20;99.90;;;;;;5046191;28;20060;-65
2022/05/15 02:28:27;;;;;;;12.52;4.90;;;12.20;99.90;;;;;;5038492;28;20045;-65
2022/05/15 02:30:53;;;;;;;7.72;5.20;;;12.20;99.90;;;;;;5052026;28;20053;-65
2022/05/15 02:33:20;;;;;;;7.15;5.03;;;12.20;99.90;;;;;;5051899;28;20099;-65
2022/05/15 02:35:47;;;;;;;9.82;5.40;;;12.10;99.90;;;;;;5062241;28;20110;-65
2022/05/15 02:38:14;;;;;;;15.77;5.10;;;12.10;99.90;;;;;;5057934;28;20045;-65
2022/05/15 02:40:42;;;;;;;8.20;5.50;;;12.10;99.90;;;;;;5033698;28;20037;-65
2022/05/15 02:43:08;;;;;;;7.25;4.88;;;12.00;99.90;;;;;;5056411;28;20141;-65
2022/05/15 02:45:35;;;;;;;14.15;6.25;;;11.90;99.90;;;;;;5045045;28;20037;-65
2022/05/15 02:48:02;;;;;;;10.02;6.15;;;11.70;99.90;;;;;;5033966;28;20065;-65
2022/05/15 02:53:14;;;;;;;9.27;5.90;;;11.60;99.90;;;;;;5065575;28;20044;-65
2022/05/15 02:55:41;;;;;;;11.57;5.28;;;11.60;99.90;;;;;;5071642;28;20044;-65
2022/05/15 02:58:08;;;;;;;11.07;6.03;;;11.60;99.90;;;;;;5053858;28;20139;-65
2022/05/15 03:00:35;;;;;;;12.43;5.85;;;11.70;99.90;;;;;;5067735;28;20119;-65
2022/05/15 03:03:01;;;;;;;6.72;5.05;;;11.70;99.90;;;;;;5033677;28;20132;-65
2022/05/15 03:05:29;;;;;;;11.10;5.97;;;11.80;99.90;;;;;;5033404;28;20087;-65
2022/05/15 03:07:56;;;;;;;11.55;5.63;;;11.80;99.90;;;;;;5041498;28;20060;-65
2022/05/15 03:10:22;;;;;;;9.90;5.50;;;11.80;99.90;;;;;;5046279;28;20095;-65
2022/05/15 03:12:50;;;;;;;10.27;5.40;;;11.70;99.90;;;;;;5033565;28;20779;-65
2022/05/15 03:15:19;;;;;;;11.90;5.65;;;11.70;99.90;;;;;;5034440;28;20056;-65
2022/05/15 03:17:46;;;;;;;9.90;6.22;;;11.70;99.90;;;;;;5049668;28;20080;-65
2022/05/15 03:20:16;;;;;;;10.63;6.63;;;11.70;99.90;;;;;;5033161;28;20048;-65
2022/05/15 03:22:44;;;;;;;9.30;7.28;;;11.70;99.90;;;;;;5052632;28;20401;-65
2022/05/15 03:25:12;;;;;;;13.27;7.30;;;11.80;99.90;;;;;;5047892;28;20045;-65
2022/05/15 03:27:39;;;;;;;10.60;6.68;;;11.70;99.90;;;;;;5033620;28;20075;-65
2022/05/15 03:30:07;;;;;;;9.23;6.63;;;12.10;99.90;;;;;;5032911;28;20045;-65
2022/05/15 03:32:34;;;;;;;10.98;6.60;;;11.60;99.90;;;;;;5052452;28;20566;-65
2022/05/15 03:35:01;;;;;;;12.55;8.02;;;11.60;99.90;;;;;;5051360;28;20045;-65
2022/05/15 03:37:28;;;;;;;11.80;7.93;;;11.60;99.90;;;;;;5033291;28;20057;-65
2022/05/15 03:39:55;;;;;;;16.15;8.13;;;11.60;99.90;;;;;;5061687;28;20040;-65
2022/05/15 03:42:24;;;;;;;14.38;8.63;;;11.60;99.90;;;;;;5056091;28;20409;-65
2022/05/15 03:44:52;;;;;;;13.98;8.95;;;11.60;99.90;;;;;;5051147;28;20036;-65
2022/05/15 03:47:19;;;;;;;14.65;9.50;;;11.60;99.90;;;;;;5033482;28;20502;-65
2022/05/15 03:49:47;;;;;;;11.82;7.97;;;11.60;99.90;;;;;;5047314;28;20044;-65
2022/05/15 03:52:14;;;;;;;;;;;11.60;99.90;;;;;;5039169;28;20069;-65
2022/05/15 03:54:41;;;;;;;10.27;6.10;;;11.60;99.90;;;;;;5033177;28;20152;-65
2022/05/15 03:57:08;;;;;;;14.23;7.65;;;11.60;99.90;;;;;;5038443;28;20044;-65
2022/05/15 03:59:38;;;;;;;12.95;6.65;;;11.60;99.90;;;;;;5062099;28;20065;-65
2022/05/15 04:02:06;;;;;;;11.77;6.38;;;11.50;99.90;;;;;;5032727;28;20045;-65
2022/05/15 04:04:34;;;;;;;12.20;6.38;;;11.40;99.90;;;;;;5035466;28;20132;-64
2022/05/15 04:07:01;;;;;;;11.63;6.63;;;11.40;99.90;;;;;;5066932;28;20056;-65
2022/05/15 04:09:30;;;;;;;12.40;7.03;;;11.30;99.90;;;;;;5033083;28;20076;-65
2022/05/15 04:11:57;;;;;;;13.02;6.88;;;11.40;99.90;;;;;;5032677;28;20060;-65
2022/05/15 04:14:24;;;;;;;;;;;11.30;99.90;;;;;;5066318;28;20041;-65
2022/05/15 04:16:51;;;;;;;17.13;7.82;;;11.30;99.90;;;;;;5033823;28;19974;-65
2022/05/15 04:19:18;;;;;;;12.18;7.72;;;11.30;99.90;;;;;;5054690;28;20068;-65
2022/05/15 04:21:44;;;;;;;10.10;6.90;;;11.30;99.90;;;;;;5040477;28;20412;-65
2022/05/15 04:24:14;;;;;;;12.73;7.88;;;11.40;99.90;;;;;;5064847;22;20048;-69
2022/05/15 04:26:43;;;;;;;13.80;8.48;;;11.40;99.90;;;;;;5050188;28;20068;-69
2022/05/15 04:29:11;;;;;;;10.85;7.85;;;11.40;99.90;;;;;;5052969;28;20523;-69
2022/05/15 04:31:38;;;;;;;14.10;8.57;;;11.50;99.90;;;;;;5052728;28;20044;-69
2022/05/15 04:34:05;;;;;;;14.02;8.85;;;11.50;99.90;;;;;;5042422;28;20049;-69
2022/05/15 04:36:34;;;;;;;14.30;8.60;;;11.60;99.90;;;;;;5053003;28;20084;-69
2022/05/15 04:39:04;;;;;;;16.08;9.30;;;11.70;99.90;;;;;;5054119;28;20501;-68
2022/05/15 04:41:31;;;;;;;17.67;9.35;;;11.80;99.90;;;;;;5053855;28;20037;-69
2022/05/15 04:43:58;;;;;;;14.65;9.65;;;11.80;99.90;;;;;;5054290;28;20447;-69
2022/05/15 04:46:27;;;;;;;19.15;9.40;;;11.80;99.90;;;;;;5053463;28;20045;-69
2022/05/15 04:48:54;;;;;;;12.45;8.45;;;11.90;99.90;;;;;;5053978;28;20052;-68
2022/05/15 04:51:21;;;;;;;12.68;8.98;;;11.90;99.90;;;;;;5053808;28;20041;-68
2022/05/15 04:53:47;;;;;;;12.93;8.50;;;12.00;99.90;;;;;;5053484;28;20036;-69
2022/05/15 04:56:14;;;;;;;14.65;8.63;;;12.00;99.90;;;;;;5053756;28;20136;-68
2022/05/15 04:58:41;;;;;;;12.90;7.65;;;12.10;99.90;;;;;;5053875;28;20049;-69
2022/05/15 05:01:08;;;;;;;12.30;6.38;;;12.20;99.90;;;;;;5053381;28;20037;-68
2022/05/15 05:03:35;;;;;;;10.30;6.53;;;12.30;99.90;;;;;;5052949;28;20055;-69
2022/05/15 05:06:02;;;;;;;11.95;6.93;;;12.30;99.90;;;;;;5053754;28;20044;-69
2022/05/15 05:08:30;;;;;;;11.30;8.02;;;12.40;99.90;;;;;;5053885;28;20064;-69
2022/05/15 05:10:57;;;;;;;13.90;9.27;;;12.40;99.90;;;;;;5053458;28;20440;-69
2022/05/15 05:13:23;;;;;;;16.55;9.95;;;12.50;99.90;;;;;;5052875;28;20402;-69
2022/05/15 05:15:50;;;;;;;12.23;9.05;;;12.60;99.90;;;;;;5053513;28;20071;-69
2022/05/15 05:18:18;;;;;;;13.88;9.57;;;12.60;99.90;;;;;;5053731;28;20078;-69
2022/05/15 05:20:46;;;;;;;13.23;8.65;;;12.70;99.90;;;;;;5052618;28;20041;-69
2022/05/15 05:23:13;;;;;;;15.77;8.85;;;12.70;99.90;;;;;;5046895;28;20087;-69
2022/05/15 05:25:40;;;;;;;12.10;8.80;;;12.80;99.90;;;;;;5053293;28;20037;-68
2022/05/15 05:28:08;;;;;;;13.50;8.60;;;12.90;99.90;;;;;;5052996;28;20045;-69
2022/05/15 05:30:37;;;;;;;;;;;13.00;99.90;;;;;;5050967;28;20045;-69
2022/05/15 05:33:05;;;;;;;15.02;9.18;;;13.00;99.90;;;;;;5053000;28;19920;-69
2022/05/15 05:35:33;;;;;;;11.75;8.45;;;13.00;99.90;;;;;;5052987;28;20052;-69
2022/05/15 05:38:00;;;;;;;12.35;8.60;;;13.10;99.90;;;;;;5051994;28;20049;-69
2022/05/15 05:40:27;;;;;;;14.18;8.60;;;13.10;99.90;;;;;;5052501;28;20045;-69
2022/05/15 05:42:54;;;;;;;12.70;8.27;;;13.10;99.90;;;;;;5052939;28;20237;-69
2022/05/15 05:45:21;;;;;;;10.77;7.80;;;13.10;99.90;;;;;;5052661;28;20052;-69
2022/05/15 05:47:50;;;;;;;12.05;8.85;;;13.20;99.90;;;;;;5045201;28;20049;-69
2022/05/15 05:50:20;;;;;;;12.98;8.57;;;13.20;99.90;;;;;;5052091;28;20040;-69
2022/05/15 05:52:46;;;;;;;12.75;7.95;;;13.30;99.90;;;;;;5052626;28;20045;-69
2022/05/15 05:55:15;;;;;;;11.77;8.05;;;13.30;99.90;;;;;;5052716;28;20053;-69
2022/05/15 05:57:44;;;;;;;11.95;8.30;;;13.30;99.90;;;;;;5044843;28;20558;-68
2022/05/15 06:00:15;;;;;;;11.63;7.50;;;13.30;99.90;;;;;;5051856;28;20049;-69
2022/05/15 06:02:43;;;;;;;10.63;7.50;;;13.40;99.90;;;;;;5052640;28;20055;-69
2022/05/15 06:05:10;;;;;;;13.45;8.27;;;13.40;99.90;;;;;;5051633;28;20094;-69
2022/05/15 06:07:37;;;;;;;12.73;8.32;;;13.50;99.90;;;;;;5052363;28;20040;-69
2022/05/15 06:10:08;;;;;;;17.17;9.98;;;13.60;99.90;;;;;;5052015;28;20055;-68
2022/05/15 06:12:35;;;;;;;17.35;8.02;;;13.80;99.90;;;;;;5051478;28;20405;-69
2022/05/15 06:15:02;;;;;;;11.73;8.23;;;13.80;99.90;;;;;;5046312;28;20086;-69
2022/05/15 06:17:29;;;;;;;;;;;13.90;99.90;;;;;;5051367;28;20102;-68
2022/05/15 06:19:56;;;;;;;15.05;8.73;;;14.00;99.90;;;;;;5049906;28;19944;-69
2022/05/15 06:22:24;;;;;;;15.68;8.10;;;14.20;99.90;;;;;;5051359;28;20099;-69
2022/05/15 06:24:50;;;;;;;;;;;14.20;99.90;;;;;;5050630;28;20567;-68
2022/05/15 06:27:17;;;;;;;12.52;8.32;;;14.30;99.90;;;;;;5051264;28;19921;-69
2022/05/15 06:29:44;;;;;;;11.35;8.02;;;14.40;99.90;;;;;;5051508;28;20037;-69
2022/05/15 06:32:11;;;;;;;10.35;7.90;;;14.40;99.90;;;;;;5049585;28;20041;-69
2022/05/15 06:34:38;;;;;;;13.43;7.68;;;14.60;99.90;;;;;;5051399;28;20041;-69
2022/05/15 06:37:05;;;;;;;10.70;7.10;;;14.70;99.90;;;;;;5049148;28;20056;-68
2022/05/15 06:39:31;;;;;;;12.18;7.45;;;14.80;99.90;;;;;;5060373;28;20044;-69
2022/05/15 06:42:00;;;;;;;10.15;7.53;;;14.90;99.90;;;;;;5047749;28;20603;-69
2022/05/15 06:44:37;;;;;;;10.93;6.97;;;15.10;99.90;;;;;;5050020;28;20055;-69
2022/05/15 06:47:04;;;;;;;10.13;7.80;;;15.20;99.90;;;;;;5051018;28;20106;-69
2022/05/15 06:49:31;;;;;;;10.70;7.18;;;15.30;99.90;;;;;;5051112;28;20079;-69
2022/05/15 06:51:58;;;;;;;13.27;6.60;;;15.50;99.90;;;;;;5050870;28;20045;-69
2022/05/15 06:54:25;;;;;;;10.98;6.65;;;15.80;99.90;;;;;;5051010;28;20106;-69
2022/05/15 06:59:39;;;;;;;8.00;6.53;;;16.00;99.90;;;;;;5051518;28;20102;-69
2022/05/15 07:02:07;;;;;;;13.93;6.15;;;16.20;99.90;;;;;;5050290;28;20048;-69
2022/05/15 07:04:34;;;;;;;9.25;6.13;;;16.30;99.90;;;;;;5050979;28;20056;-69
2022/05/15 07:07:01;;;;;;;;;;;16.50;99.90;;;;;;5051514;28;20099;-69
2022/05/15 07:09:27;;;;;;;7.85;6.40;;;16.60;99.90;;;;;;5051354;28;19924;-69
2022/05/15 07:11:54;;;;;;;8.98;6.50;;;16.70;99.90;;;;;;5049328;28;20033;-69
2022/05/15 07:14:21;;;;;;;9.15;6.30;;;16.80;99.90;;;;;;5051150;28;20064;-69
2022/05/15 07:16:48;;;;;;;9.55;6.40;;;16.90;99.90;;;;;;5051340;28;20045;-69
2022/05/15 07:19:15;;;;;;;9.95;6.70;;;17.00;99.90;;;;;;5046725;28;20040;-69
2022/05/15 07:21:42;;;;;;;11.38;6.30;;;17.10;99.90;;;;;;5040652;28;20041;-69
2022/05/15 07:24:10;;;;;;;8.73;6.50;;;17.20;99.90;;;;;;5031216;28;20050;-69
2022/05/15 07:26:42;;;;;;;10.55;6.72;;;17.40;99.90;;;;;;5035344;28;20505;-69
2022/05/15 07:29:09;;;;;;;13.45;5.90;;;17.40;99.90;;;;;;5051093;28;20055;-69
2022/05/15 07:31:35;;;;;;;8.75;6.28;;;17.50;99.90;;;;;;5050331;28;20044;-69
2022/05/15 07:34:03;;;;;;;10.00;6.32;;;17.60;99.90;;;;;;5051107;28;20044;-69
2022/05/15 07:36:30;;;;;;;12.13;6.43;;;17.70;99.90;;;;;;5050401;28;20041;-69
2022/05/15 07:38:56;;;;;;;7.68;5.82;;;17.90;99.90;;;;;;5050893;28;20052;-69
2022/05/15 07:41:23;;;;;;;8.15;6.15;;;18.00;99.90;;;;;;5049938;28;20099;-69
2022/05/15 07:43:50;;;;;;;9.05;5.85;;;18.20;99.90;;;;;;5050316;28;20041;-69
2022/05/15 07:46:17;;;;;;;8.90;6.05;;;18.20;99.90;;;;;;5050743;28;20387;-69
2022/05/15 07:48:44;;;;;;;10.90;6.00;;;18.30;99.90;;;;;;5050955;28;20045;-69
2022/05/15 07:51:11;;;;;;;7.80;5.80;;;18.40;99.90;;;;;;5050820;28;20094;-69
2022/05/15 07:53:39;;;;;;;10.35;6.43;;;18.50;99.90;;;;;;5054157;28;20052;-69
2022/05/15 07:56:09;;;;;;;8.65;5.72;;;18.60;99.90;;;;;;5054615;28;20587;-70
2022/05/15 07:58:37;;;;;;;7.38;5.20;;;18.60;99.90;;;;;;5054747;28;20047;-69
2022/05/15 08:01:05;;;;;;;6.80;5.53;;;18.90;99.90;;;;;;5053393;28;20045;-69
2022/05/15 08:03:37;;;;;;;10.02;5.80;;;18.90;99.90;;;;;;5046428;28;20056;-69
2022/05/15 08:08:51;;;;;;;6.55;5.75;;;19.00;99.90;;;;;;5053847;28;20091;-69
2022/05/15 08:11:18;;;;;;;8.07;6.35;;;19.20;99.90;;;;;;5054043;28;20400;-70
2022/05/15 08:13:44;;;;;;;9.40;6.40;;;19.30;99.90;;;;;;5054545;28;20057;-69
2022/05/15 08:16:11;;;;;;;8.52;5.60;;;19.40;99.90;;;;;;5054136;28;20095;-69
2022/05/15 08:24:09;;;;;;;10.30;5.78;;;19.70;99.90;;;;;;5053856;28;20045;-69
2022/05/15 08:26:37;;;;;;;7.03;5.43;;;19.90;99.90;;;;;;5053770;28;20036;-69
2022/05/15 08:29:04;;;;;;;8.55;5.78;;;20.00;99.90;;;;;;5054120;28;20052;-69
2022/05/15 08:31:30;;;;;;;7.93;5.35;;;20.10;99.90;;;;;;5054199;28;20432;-69
2022/05/15 08:33:58;;;;;;;6.53;5.35;;;20.20;99.90;;;;;;5053712;28;20124;-69
2022/05/15 08:36:24;;;;;;;11.93;4.93;;;20.50;99.90;;;;;;5053956;28;20410;-69
2022/05/15 08:38:51;;;;;;;5.32;4.47;;;20.40;99.90;;;;;;5053824;28;20504;-70
2022/05/15 08:41:47;;;;;;;8.68;4.88;;;20.40;99.90;;;;;;5053450;28;20045;-69
2022/05/15 08:44:29;;;;;;;8.68;5.32;;;20.60;99.90;;;;;;5038443;28;20057;-69
2022/05/15 08:47:18;;;;;;;9.50;4.97;;;20.50;99.90;;;;;;5053846;28;20684;-70
2022/05/15 08:49:57;;;;;;;12.77;5.30;;;20.50;99.90;;;;;;5053733;28;20037;-69
2022/05/15 08:52:46;;;;;;;6.95;5.53;;;20.60;99.90;;;;;;5054059;28;20456;-69
2022/05/15 08:55:21;;;;;;;7.10;5.30;;;20.60;99.90;;;;;;5046447;28;20417;-69
2022/05/15 08:57:54;;;;;;;9.05;6.03;;;20.80;99.90;;;;;;5053723;28;20049;-69
2022/05/15 09:00:24;;;;;;;8.43;5.57;;;21.00;99.90;;;;;;5053183;28;20048;-69
2022/05/15 09:02:51;;;;;;;8.98;5.47;;;21.10;99.90;;;;;;5052435;28;20048;-70
2022/05/15 09:05:18;;;;;;;10.32;6.03;;;21.30;99.90;;;;;;5053466;28;20049;-69
2022/05/15 09:08:25;;;;;;;8.38;5.43;;;21.30;99.90;;;;;;5052650;28;20098;-70
2022/05/15 09:11:06;;;;;;;13.35;5.63;;;21.40;99.90;;;;;;5017442;28;20646;-70
2022/05/15 09:13:35;;;;;;;7.75;5.32;;;21.50;99.90;;;;;;5052587;28;20049;-70
2022/05/15 09:16:03;;;;;;;9.25;5.22;;;21.60;99.90;;;;;;5053130;28;20594;-70
2022/05/15 09:18:34;;;;;;;6.03;4.63;;;21.70;99.90;;;;;;5052425;28;20461;-70
2022/05/15 09:21:06;;;;;;;7.00;5.45;;;21.70;99.90;;;;;;5065277;28;20041;-70
2022/05/15 09:23:35;;;;;;;7.95;5.55;;;21.90;99.90;;;;;;5052888;28;20041;-70
2022/05/15 09:26:01;;;;;;;7.70;5.30;;;21.90;99.90;;;;;;5052781;28;20498;-69
2022/05/15 09:28:29;;;;;;;10.55;5.22;;;22.30;99.90;;;;;;5052790;28;20041;-70
2022/05/15 09:31:03;;;;;;;9.45;5.07;;;22.10;99.90;;;;;;5052593;28;20111;-70
2022/05/15 09:33:55;;;;;;;7.65;5.13;;;22.20;99.90;;;;;;5049942;28;20052;-69
2022/05/15 09:36:25;;;;;;;7.22;5.03;;;22.10;99.90;;;;;;5044211;28;20048;-69
2022/05/15 09:39:19;;;;;;;6.43;4.50;;;22.20;99.90;;;;;;5052628;28;20037;-69
2022/05/15 09:45:16;;;;;;;7.30;4.78;;;22.50;99.90;;;;;;5052676;28;20087;-69
2022/05/15 09:47:45;;;;;;;7.32;4.80;;;22.60;99.90;;;;;;5052803;28;20037;-70
2022/05/15 09:50:40;;;;;;;7.43;4.55;;;22.50;99.90;;;;;;5052394;28;20049;-70
2022/05/15 09:53:27;;;;;;;8.68;5.10;;;22.40;99.90;;;;;;5049841;28;20090;-70
2022/05/15 09:56:01;;;;;;;8.45;4.65;;;22.50;99.90;;;;;;5039261;28;20102;-70
2022/05/15 09:58:51;;;;;;;7.88;4.50;;;22.50;99.90;;;;;;5048508;28;20562;-70
2022/05/15 10:01:35;;;;;;;11.40;4.97;;;22.60;99.90;;;;;;5051031;28;20041;-69
2022/05/15 10:04:20;;;;;;;7.20;4.80;;;22.60;99.90;;;;;;5045164;28;20049;-69
2022/05/15 10:06:53;;;;;;;7.32;4.65;;;22.70;99.90;;;;;;5051859;28;20501;-69
2022/05/15 10:09:40;;;;;;;6.22;4.70;;;22.80;99.90;;;;;;5052270;28;20044;-69
2022/05/15 10:12:15;;;;;;;8.70;5.10;;;22.90;99.90;;;;;;5052142;28;20049;-69
2022/05/15 10:14:51;;;;;;;9.43;5.53;;;22.80;99.90;;;;;;5051028;28;20045;-69
2022/05/15 10:17:21;;;;;;;12.98;5.50;;;22.90;99.90;;;;;;5052104;28;20055;-70
2022/05/15 10:20:04;;;;;;;8.90;5.22;;;22.90;99.90;;;;;;5052305;28;20045;-70
2022/05/15 10:22:54;;;;;;;8.13;4.85;;;23.10;99.90;;;;;;5051557;28;20073;-69
2022/05/15 10:26:04;;;;;;;7.72;5.13;;;23.20;99.90;;;;;;5047372;28;20041;-69
2022/05/15 10:28:47;;;;;;;11.52;5.28;;;23.10;99.90;;;;;;5052284;28;20037;-69
2022/05/15 10:31:31;;;;;;;15.35;6.18;;;23.10;99.90;;;;;;5051232;28;20052;-69
2022/05/15 10:34:02;;;;;;;9.48;5.95;;;23.10;99.90;;;;;;5043650;28;20045;-69
2022/05/15 10:37:09;;;;;;;11.43;5.72;;;23.10;99.90;;;;;;5052007;28;20045;-69
2022/05/15 10:39:45;;;;;;;6.45;4.80;;;23.00;99.90;;;;;;5009647;28;20050;-69
2022/05/15 10:42:39;;;;;;;10.57;5.45;;;23.00;99.90;;;;;;5046880;28;20057;-69
2022/05/15 10:45:33;;;;;;;10.18;5.07;;;23.10;99.90;;;;;;5031993;28;20493;-69
2022/05/15 10:48:38;;;;;;;7.53;5.18;;;23.20;99.90;;;;;;5031900;28;20045;-69
2022/05/15 10:51:18;;;;;;;8.50;4.53;;;23.20;99.90;;;;;;5038655;28;20497;-66
2022/05/15 10:59:59;;;;;;;8.25;4.50;;;23.30;99.90;;;;;;5051061;28;20051;-71
2022/05/15 11:02:43;;;;;;;7.65;4.18;;;23.30;99.90;;;;;;5051354;28;20394;-70
2022/05/15 11:05:20;;;;;;;8.88;4.57;;;23.30;99.90;;;;;;5051445;28;20548;-72
2022/05/15 11:07:59;;;;;;;9.05;4.03;;;23.30;99.90;;;;;;5051641;28;20412;-71
2022/05/15 11:10:52;;;;;;;7.55;3.83;;;23.40;99.90;;;;;;5050069;28;20460;-71
2022/05/15 11:13:52;;;;;;;6.72;3.88;;;23.50;99.90;;;;;;5034953;22;20061;-67
2022/05/15 11:16:46;;;;;;;9.10;4.25;;;23.50;99.90;;;;;;5013458;28;20454;-67
2022/05/15 11:19:31;;;;;;;5.82;4.10;;;23.50;99.90;;;;;;4992148;28;20090;-67
2022/05/15 11:22:13;;;;;;;6.30;3.70;;;23.60;99.90;;;;;;4999197;28;20045;-67
2022/05/15 11:25:10;;;;;;;12.50;3.92;;;23.70;99.90;;;;;;5011538;28;20045;-66
2022/05/15 11:27:53;;;;;;;9.07;4.18;;;23.70;99.90;;;;;;5011100;28;20487;-67
2022/05/15 11:30:25;;;;;;;10.07;3.70;;;23.70;99.90;;;;;;5010524;28;20088;-66
2022/05/15 11:32:52;;;;;;;5.97;3.63;;;23.60;99.90;;;;;;5011182;28;21053;-68
2022/05/15 11:35:18;;;;;;;5.97;3.78;;;23.60;99.90;;;;;;5011667;28;20092;-67
2022/05/15 11:38:04;;;;;;;9.38;4.00;;;23.70;99.90;;;;;;5011500;28;20046;-67
2022/05/15 11:40:39;;;;;;;6.30;3.60;;;23.70;99.90;;;;;;5009219;28;20041;-67
2022/05/15 11:43:30;;;;;;;8.10;4.00;;;23.80;99.90;;;;;;5003978;28;20060;-67
2022/05/15 11:46:05;;;;;;;8.30;3.55;;;23.80;99.90;;;;;;5011420;28;20060;-67
2022/05/15 11:48:37;;;;;;;10.40;4.25;;;23.80;99.90;;;;;;5011479;28;20096;-67
2022/05/15 11:51:13;;;;;;;7.07;3.72;;;23.90;99.90;;;;;;5010698;28;20112;-67
2022/05/15 11:53:53;;;;;;;6.75;3.65;;;23.90;99.90;;;;;;5011738;28;20046;-67
2022/05/15 11:56:30;;;;;;;11.90;4.60;;;24.00;99.90;;;;;;5011219;28;20046;-67
2022/05/15 11:59:21;;;;;;;6.97;3.53;;;24.10;99.90;;;;;;5009431;28;20050;-67
2022/05/15 12:01:54;;;;;;;8.07;3.50;;;24.10;99.90;;;;;;5010547;28;20568;-67
2022/05/15 12:04:36;;;;;;;5.70;3.60;;;24.20;99.90;;;;;;5011165;28;20486;-67
2022/05/15 12:07:02;;;;;;;8.60;3.88;;;24.20;99.90;;;;;;5010613;28;20057;-68
2022/05/15 12:09:41;;;;;;;6.90;3.65;;;24.30;99.90;;;;;;5009798;28;20049;-67
2022/05/15 12:12:20;;;;;;;8.20;3.83;;;24.30;99.90;;;;;;5010422;28;20045;-67
2022/05/15 12:15:08;;;;;;;10.02;3.67;;;24.20;99.90;;;;;;5011012;28;20042;-67
2022/05/15 12:17:39;;;;;;;6.82;3.60;;;24.20;99.90;;;;;;5010495;28;20038;-67
2022/05/15 12:20:15;;;;;;;4.88;3.97;;;24.30;99.90;;;;;;5010670;28;20073;-67
2022/05/15 12:22:49;;;;;;;8.15;3.88;;;24.30;99.90;;;;;;5010933;28;20129;-67
2022/05/15 12:25:17;;;;;;;8.20;3.53;;;24.30;99.90;;;;;;5005011;28;20100;-67
2022/05/15 12:31:05;;;;;;;9.13;4.07;;;24.30;99.90;;;;;;5010528;28;20529;-67
2022/05/15 12:33:52;;;;;;;8.45;3.80;;;24.20;99.90;;;;;;5010361;28;20070;-68
2022/05/15 12:36:52;;;;;;;4.78;3.67;;;24.40;99.90;;;;;;5011057;28;20092;-67
2022/05/15 12:39:42;;;;;;;7.10;3.72;;;24.50;99.90;;;;;;5001202;28;20577;-66
2022/05/15 12:42:16;;;;;;;5.85;3.60;;;24.60;99.90;;;;;;5013555;28;20046;-67
2022/05/15 12:44:43;;;;;;;5.50;4.30;;;24.80;99.90;;;;;;5014352;28;20109;-68
2022/05/15 12:47:22;;;;;;;5.55;3.75;;;24.60;99.90;;;;;;5013928;28;20042;-68
2022/05/15 12:49:59;;;;;;;5.90;3.38;;;24.60;99.90;;;;;;5013319;28;20375;-67
2022/05/15 12:52:28;;;;;;;6.57;3.67;;;24.60;99.90;;;;;;5012805;28;20053;-67
2022/05/15 12:55:02;;;;;;;9.05;3.85;;;24.70;99.90;;;;;;5028619;28;20038;-67
2022/05/15 12:57:29;;;;;;;6.45;3.63;;;24.80;99.90;;;;;;5013519;28;20038;-67
2022/05/15 12:59:56;;;;;;;8.13;3.97;;;24.70;99.90;;;;;;5012290;28;20041;-68
2022/05/15 13:02:31;;;;;;;6.82;3.67;;;24.60;99.90;;;;;;5013218;28;20041;-67
2022/05/15 13:05:01;;;;;;;11.23;4.00;;;24.60;99.90;;;;;;5013218;28;20050;-67
2022/05/15 13:07:35;;;;;;;8.93;4.15;;;24.60;99.90;;;;;;5010227;28;20046;-67
2022/05/15 13:10:09;;;;;;;11.57;4.30;;;24.60;99.90;;;;;;5006993;28;20406;-67
2022/05/15 13:12:57;;;;;;;8.43;3.42;;;24.60;99.90;;;;;;5013448;28;20053;-67
2022/05/15 13:15:27;;;;;;;7.25;3.33;;;24.60;99.90;;;;;;5013940;28;20038;-67
2022/05/15 13:17:58;;;;;;;5.30;3.83;;;24.60;99.90;;;;;;5012252;28;20034;-67
2022/05/15 13:20:28;;;;;;;6.65;3.85;;;24.70;99.90;;;;;;5013220;28;20045;-67
2022/05/15 13:22:55;;;;;;;8.98;3.95;;;24.70;99.90;;;;;;5013757;28;20046;-67
2022/05/15 13:25:36;;;;;;;6.35;3.70;;;24.80;99.90;;;;;;5012814;28;20049;-67
2022/05/15 13:28:05;;;;;;;7.05;3.97;;;24.80;99.90;;;;;;5006345;28;20050;-67
2022/05/15 13:30:33;;;;;;;4.72;3.22;;;24.80;99.90;;;;;;5012982;28;20049;-67
2022/05/15 13:33:04;;;;;;;8.65;3.85;;;24.90;99.90;;;;;;5012652;28;20525;-67
2022/05/15 13:35:36;;;;;;;5.75;3.55;;;24.90;99.90;;;;;;5013723;28;20485;-67